sensor_id;sensor_type;location;lat;lon;timestamp;pressure;altitude;pressure_sealevel;temperature;humidity
20156;BME280;10238;49.556;10.956;2023-02-12T00:00:34;100280.81;;;3.29;100.00
20156;BME280;10238;49.556;10.956;2023-02-12T00:03:27;100276.44;;;3.28;100.00
20156;BME280;10238;49.556;10.956;2023-02-12T00:06:20;100274.75;;;3.27;100.00
20156;BME280;10238;49.556;10.956;2023-02-12T00:09:12;100273.88;;;3.26;100.00
20156;BME280;10238;49.556;10.956;2023-02-12T00:12:05;100269.47;;;3.27;100.00
20156;BME280;10238;49.556;10.956;2023-02-12T00:14:54;100268.69;;;3.25;100.00
20156;BME280;10238;49.556;10.956;2023-02-12T00:17:46;100266.06;;;3.25;100.00
20156;BME280;10238;49.556;10.956;2023-02-12T00:20:35;100278.28;;;3.26;100.00
20156;BME280;10238;49.556;10.956;2023-02-12T00:23:25;100269.59;;;3.24;100.00
20156;BME280;10238;49.556;10.956;2023-02-12T00:26:17;100273.03;;;3.26;100.00
20156;BME280;10238;49.556;10.956;2023-02-12T00:29:08;100276.56;;;3.25;100.00
20156;BME280;10238;49.556;10.956;2023-02-12T00:31:57;100277.47;;;3.24;100.00
20156;BME280;10238;49.556;10.956;2023-02-12T00:34:48;100288.94;;;3.23;100.00
20156;BME280;10238;49.556;10.956;2023-02-12T00:37:38;100288.94;;;3.23;100.00
20156;BME280;10238;49.556;10.956;2023-02-12T00:40:29;100278.41;;;3.23;100.00
20156;BME280;10238;49.556;10.956;2023-02-12T00:43:18;100287.06;;;3.25;100.00
20156;BME280;10238;49.556;10.956;2023-02-12T00:46:08;100281.81;;;3.25;100.00
20156;BME280;10238;49.556;10.956;2023-02-12T00:48:58;100281.81;;;3.25;100.00
20156;BME280;10238;49.556;10.956;2023-02-12T00:51:51;100288.75;;;3.27;100.00
20156;BME280;10238;49.556;10.956;2023-02-12T00:54:43;100292.09;;;3.31;100.00
20156;BME280;10238;49.556;10.956;2023-02-12T00:57:33;100302.53;;;3.32;100.00
20156;BME280;10238;49.556;10.956;2023-02-12T01:00:22;100311.28;;;3.33;100.00
20156;BME280;10238;49.556;10.956;2023-02-12T01:03:12;100303.47;;;3.31;100.00
20156;BME280;10238;49.556;10.956;2023-02-12T01:06:01;100304.31;;;3.32;100.00
20156;BME280;10238;49.556;10.956;2023-02-12T01:08:51;100305.97;;;3.34;100.00
20156;BME280;10238;49.556;10.956;2023-02-12T01:11:40;100306.03;;;3.33;100.00
20156;BME280;10238;49.556;10.956;2023-02-12T01:14:31;100298.22;;;3.31;100.00
20156;BME280;10238;49.556;10.956;2023-02-12T01:17:22;100295.63;;;3.30;100.00
20156;BME280;10238;49.556;10.956;2023-02-12T01:20:18;100290.38;;;3.30;100.00
20156;BME280;10238;49.556;10.956;2023-02-12T01:23:09;100292.94;;;3.31;100.00
20156;BME280;10238;49.556;10.956;2023-02-12T01:25:59;100289.47;;;3.31;100.00
20156;BME280;10238;49.556;10.956;2023-02-12T01:28:51;100289.47;;;3.31;100.00
20156;BME280;10238;49.556;10.956;2023-02-12T01:31:45;100288.50;;;3.33;100.00
20156;BME280;10238;49.556;10.956;2023-02-12T01:34:36;100288.50;;;3.33;100.00
20156;BME280;10238;49.556;10.956;2023-02-12T01:37:25;100290.19;;;3.34;100.00
20156;BME280;10238;49.556;10.956;2023-02-12T01:40:17;100279.75;;;3.33;100.00
20156;BME280;10238;49.556;10.956;2023-02-12T01:43:09;100274.50;;;3.33;100.00
20156;BME280;10238;49.556;10.956;2023-02-12T01:46:02;100285.00;;;3.33;100.00
20156;BME280;10238;49.556;10.956;2023-02-12T01:48:52;100285.88;;;3.33;100.00
20156;BME280;10238;49.556;10.956;2023-02-12T01:51:44;100280.69;;;3.32;100.00
20156;BME280;10238;49.556;10.956;2023-02-12T01:54:40;100280.69;;;3.32;100.00
20156;BME280;10238;49.556;10.956;2023-02-12T01:57:34;100279.81;;;3.31;100.00
20156;BME280;10238;49.556;10.956;2023-02-12T02:00:27;100277.19;;;3.31;100.00
20156;BME280;10238;49.556;10.956;2023-02-12T02:03:18;100274.63;;;3.30;100.00
20156;BME280;10238;49.556;10.956;2023-02-12T02:06:13;100283.44;;;3.29;100.00
20156;BME280;10238;49.556;10.956;2023-02-12T02:09:05;100274.75;;;3.27;100.00
20156;BME280;10238;49.556;10.956;2023-02-12T02:11:59;100273.88;;;3.26;100.00
20156;BME280;10238;49.556;10.956;2023-02-12T02:15:11;100267.78;;;3.26;100.00
20156;BME280;10238;49.556;10.956;2023-02-12T02:18:05;100265.09;;;3.27;100.00
20156;BME280;10238;49.556;10.956;2023-02-12T02:24:29;100267.78;;;3.26;100.00
20156;BME280;10238;49.556;10.956;2023-02-12T02:27:39;100271.19;;;3.28;100.00
20156;BME280;10238;49.556;10.956;2023-02-12T02:30:37;100270.34;;;3.27;100.00
20156;BME280;10238;49.556;10.956;2023-02-12T02:33:40;100269.53;;;3.25;100.00
20156;BME280;10238;49.556;10.956;2023-02-12T02:36:38;100278.16;;;3.29;100.00
20156;BME280;10238;49.556;10.956;2023-02-12T02:39:51;100276.44;;;3.28;100.00
20156;BME280;10238;49.556;10.956;2023-02-12T02:42:46;100280.91;;;3.26;100.00
20156;BME280;10238;49.556;10.956;2023-02-12T02:45:42;100276.56;;;3.25;100.00
20156;BME280;10238;49.556;10.956;2023-02-12T02:48:35;100284.50;;;3.23;100.00
20156;BME280;10238;49.556;10.956;2023-02-12T02:51:28;100288.94;;;3.23;100.00
20156;BME280;10238;49.556;10.956;2023-02-12T02:54:25;100282.00;;;3.20;100.00
20156;BME280;10238;49.556;10.956;2023-02-12T02:57:18;100287.19;;;3.22;100.00
20156;BME280;10238;49.556;10.956;2023-02-12T03:00:14;100288.13;;;3.21;100.00
20156;BME280;10238;49.556;10.956;2023-02-12T03:03:10;100286.47;;;3.18;100.00
20156;BME280;10238;49.556;10.956;2023-02-12T03:06:06;100291.75;;;3.18;100.00
20156;BME280;10238;49.556;10.956;2023-02-12T03:08:59;100289.16;;;3.17;100.00
20156;BME280;10238;49.556;10.956;2023-02-12T03:11:50;100291.78;;;3.17;100.00
20156;BME280;10238;49.556;10.956;2023-02-12T03:14:45;100296.13;;;3.18;100.00
20156;BME280;10238;49.556;10.956;2023-02-12T03:17:41;100303.22;;;3.16;100.00
20156;BME280;10238;49.556;10.956;2023-02-12T03:20:39;100295.34;;;3.16;100.00
20156;BME280;10238;49.556;10.956;2023-02-12T03:23:35;100301.50;;;3.15;100.00
20156;BME280;10238;49.556;10.956;2023-02-12T03:26:32;100304.13;;;3.15;100.00
20156;BME280;10238;49.556;10.956;2023-02-12T03:29:25;100302.50;;;3.12;100.00
20156;BME280;10238;49.556;10.956;2023-02-12T03:32:22;100311.25;;;3.13;100.00
20156;BME280;10238;49.556;10.956;2023-02-12T03:35:17;100308.59;;;3.13;100.00
20156;BME280;10238;49.556;10.956;2023-02-12T03:38:13;100310.38;;;3.12;100.00
20156;BME280;10238;49.556;10.956;2023-02-12T03:41:08;100312.13;;;3.12;100.00
20156;BME280;10238;49.556;10.956;2023-02-12T03:44:04;100305.13;;;3.12;100.00
20156;BME280;10238;49.556;10.956;2023-02-12T03:47:04;100312.88;;;3.15;100.00
20156;BME280;10238;49.556;10.956;2023-02-12T03:50:05;100320.81;;;3.14;100.00
20156;BME280;10238;49.556;10.956;2023-02-12T03:52:57;100315.56;;;3.14;100.00
20156;BME280;10238;49.556;10.956;2023-02-12T03:55:50;100318.13;;;3.15;100.00
20156;BME280;10238;49.556;10.956;2023-02-12T03:58:42;100309.44;;;3.13;100.00
20156;BME280;10238;49.556;10.956;2023-02-12T04:01:33;100313.88;;;3.13;100.00
20156;BME280;10238;49.556;10.956;2023-02-12T04:04:23;100323.44;;;3.14;100.00
20156;BME280;10238;49.556;10.956;2023-02-12T04:07:11;100331.22;;;3.17;100.00
20156;BME280;10238;49.556;10.956;2023-02-12T04:09:59;100324.09;;;3.19;100.00
20156;BME280;10238;49.556;10.956;2023-02-12T04:12:53;100325.84;;;3.20;100.00
20156;BME280;10238;49.556;10.956;2023-02-12T04:15:56;100330.16;;;3.21;100.00
20156;BME280;10238;49.556;10.956;2023-02-12T04:18:48;100333.66;;;3.21;100.00
20156;BME280;10238;49.556;10.956;2023-02-12T04:21:43;100334.50;;;3.22;100.00
20156;BME280;10238;49.556;10.956;2023-02-12T04:24:45;100331.81;;;3.23;100.00
20156;BME280;10238;49.556;10.956;2023-02-12T04:27:44;100325.72;;;3.23;100.00
20156;BME280;10238;49.556;10.956;2023-02-12T04:30:42;100328.41;;;3.21;100.00
20156;BME280;10238;49.556;10.956;2023-02-12T04:33:39;100319.72;;;3.19;100.00
20156;BME280;10238;49.556;10.956;2023-02-12T04:36:37;100331.16;;;3.18;100.00
20156;BME280;10238;49.556;10.956;2023-02-12T04:39:33;100329.50;;;3.16;100.00
20156;BME280;10238;49.556;10.956;2023-02-12T04:42:26;100338.28;;;3.15;100.00
20156;BME280;10238;49.556;10.956;2023-02-12T04:45:19;100338.28;;;3.15;100.00
20156;BME280;10238;49.556;10.956;2023-02-12T04:48:13;100333.03;;;3.15;100.00
20156;BME280;10238;49.556;10.956;2023-02-12T04:51:03;100333.03;;;3.15;100.00
20156;BME280;10238;49.556;10.956;2023-02-12T04:53:53;100340.91;;;3.15;100.00
20156;BME280;10238;49.556;10.956;2023-02-12T04:56:44;100340.91;;;3.15;100.00
20156;BME280;10238;49.556;10.956;2023-02-12T04:59:34;100339.22;;;3.14;100.00
20156;BME280;10238;49.556;10.956;2023-02-12T05:02:24;100333.09;;;3.13;100.00
20156;BME280;10238;49.556;10.956;2023-02-12T05:05:15;100334.88;;;3.13;100.00
20156;BME280;10238;49.556;10.956;2023-02-12T05:08:05;100340.13;;;3.13;100.00
20156;BME280;10238;49.556;10.956;2023-02-12T05:10:55;100342.81;;;3.11;100.00
20156;BME280;10238;49.556;10.956;2023-02-12T05:13:46;100341.97;;;3.11;100.00
20156;BME280;10238;49.556;10.956;2023-02-12T05:16:37;100347.22;;;3.11;100.00
20156;BME280;10238;49.556;10.956;2023-02-12T05:19:28;100344.59;;;3.11;100.00
20156;BME280;10238;49.556;10.956;2023-02-12T05:22:19;100350.66;;;3.13;100.00
20156;BME280;10238;49.556;10.956;2023-02-12T05:25:09;100345.50;;;3.10;100.00
20156;BME280;10238;49.556;10.956;2023-02-12T05:28:00;100349.91;;;3.09;100.00
20156;BME280;10238;49.556;10.956;2023-02-12T05:30:50;100346.47;;;3.07;100.00
20156;BME280;10238;49.556;10.956;2023-02-12T05:33:41;100354.41;;;3.06;100.00
20156;BME280;10238;49.556;10.956;2023-02-12T05:36:32;100355.22;;;3.08;100.00
20156;BME280;10238;49.556;10.956;2023-02-12T05:39:25;100358.81;;;3.05;100.00
20156;BME280;10238;49.556;10.956;2023-02-12T05:42:16;100359.53;;;3.09;100.00
20156;BME280;10238;49.556;10.956;2023-02-12T05:45:07;100357.91;;;3.06;100.00
20156;BME280;10238;49.556;10.956;2023-02-12T05:47:58;100368.34;;;3.08;100.00
20156;BME280;10238;49.556;10.956;2023-02-12T05:50:49;100376.28;;;3.06;100.00
20156;BME280;10238;49.556;10.956;2023-02-12T05:53:42;100374.59;;;3.05;100.00
20156;BME280;10238;49.556;10.956;2023-02-12T05:56:34;100378.97;;;3.05;100.00
20156;BME280;10238;49.556;10.956;2023-02-12T05:59:24;100377.28;;;3.04;100.00
20156;BME280;10238;49.556;10.956;2023-02-12T06:02:14;100373.72;;;3.05;100.00
20156;BME280;10238;49.556;10.956;2023-02-12T06:05:04;100373.72;;;3.05;100.00
20156;BME280;10238;49.556;10.956;2023-02-12T06:07:54;100376.34;;;3.05;100.00
20156;BME280;10238;49.556;10.956;2023-02-12T06:10:45;100378.09;;;3.04;100.00
20156;BME280;10238;49.556;10.956;2023-02-12T06:13:35;100378.09;;;3.04;100.00
20156;BME280;10238;49.556;10.956;2023-02-12T06:16:25;100375.53;;;3.03;100.00
20156;BME280;10238;49.556;10.956;2023-02-12T06:19:15;100380.78;;;3.03;100.00
20156;BME280;10238;49.556;10.956;2023-02-12T06:22:05;100381.66;;;3.03;100.00
20156;BME280;10238;49.556;10.956;2023-02-12T06:24:55;100384.34;;;3.02;100.00
20156;BME280;10238;49.556;10.956;2023-02-12T06:27:46;100382.63;;;3.01;100.00
20156;BME280;10238;49.556;10.956;2023-02-12T06:30:39;100393.16;;;3.01;100.00
20156;BME280;10238;49.556;10.956;2023-02-12T06:33:28;100387.03;;;3.00;100.00
20156;BME280;10238;49.556;10.956;2023-02-12T06:36:18;100394.91;;;3.00;100.00
20156;BME280;10238;49.556;10.956;2023-02-12T06:39:08;100398.41;;;3.01;100.00
20156;BME280;10238;49.556;10.956;2023-02-12T06:41:57;100398.41;;;3.01;100.00
20156;BME280;10238;49.556;10.956;2023-02-12T06:44:46;100402.78;;;3.00;100.00
20156;BME280;10238;49.556;10.956;2023-02-12T06:47:42;100401.94;;;3.00;100.00
20156;BME280;10238;49.556;10.956;2023-02-12T06:50:32;100408.97;;;2.99;100.00
20156;BME280;10238;49.556;10.956;2023-02-12T06:53:21;100414.22;;;2.99;100.00
20156;BME280;10238;49.556;10.956;2023-02-12T06:56:12;100415.97;;;2.99;100.00
20156;BME280;10238;49.556;10.956;2023-02-12T06:59:01;100417.63;;;3.01;100.00
20156;BME280;10238;49.556;10.956;2023-02-12T07:01:51;100430.72;;;3.03;100.00
20156;BME280;10238;49.556;10.956;2023-02-12T07:04:42;100431.63;;;3.02;100.00
20156;BME280;10238;49.556;10.956;2023-02-12T07:07:32;100423.75;;;3.02;100.00
20156;BME280;10238;49.556;10.956;2023-02-12T07:10:21;100437.69;;;3.04;100.00
20156;BME280;10238;49.556;10.956;2023-02-12T07:13:10;100440.31;;;3.04;100.00
20156;BME280;10238;49.556;10.956;2023-02-12T07:16:04;100448.97;;;3.06;100.00
20156;BME280;10238;49.556;10.956;2023-02-12T07:18:54;100439.34;;;3.06;100.00
20156;BME280;10238;49.556;10.956;2023-02-12T07:21:44;100443.72;;;3.06;100.00
20156;BME280;10238;49.556;10.956;2023-02-12T07:24:33;100441.09;;;3.06;100.00
20156;BME280;10238;49.556;10.956;2023-02-12T07:27:22;100440.88;;;3.12;100.00
20156;BME280;10238;49.556;10.956;2023-02-12T07:30:14;100446.81;;;3.17;100.00
20156;BME280;10238;49.556;10.956;2023-02-12T07:33:04;100450.38;;;3.16;100.00
20156;BME280;10238;49.556;10.956;2023-02-12T07:35:54;100457.22;;;3.20;100.00
20156;BME280;10238;49.556;10.956;2023-02-12T07:38:45;100457.94;;;3.23;100.00
20156;BME280;10238;49.556;10.956;2023-02-12T07:41:35;100466.63;;;3.25;100.00
20156;BME280;10238;49.556;10.956;2023-02-12T07:44:25;100461.38;;;3.25;100.00
20156;BME280;10238;49.556;10.956;2023-02-12T07:47:15;100458.53;;;3.31;100.00
20156;BME280;10238;49.556;10.956;2023-02-12T07:50:06;100460.97;;;3.36;100.00
20156;BME280;10238;49.556;10.956;2023-02-12T07:52:55;100462.41;;;3.44;100.00
20156;BME280;10238;49.556;10.956;2023-02-12T07:55:46;100463.22;;;3.46;100.00
20156;BME280;10238;49.556;10.956;2023-02-12T07:58:35;100469.91;;;3.32;100.00
20156;BME280;10238;49.556;10.956;2023-02-12T08:01:27;100465.19;;;3.40;100.00
20156;BME280;10238;49.556;10.956;2023-02-12T08:04:21;100468.91;;;3.57;100.00
20156;BME280;10238;49.556;10.956;2023-02-12T08:07:12;100463.28;;;3.66;100.00
20156;BME280;10238;49.556;10.956;2023-02-12T08:10:01;100465.63;;;3.74;100.00
20156;BME280;10238;49.556;10.956;2023-02-12T08:12:53;100467.94;;;3.81;100.00
20156;BME280;10238;49.556;10.956;2023-02-12T08:15:44;100472.22;;;3.84;100.00
20156;BME280;10238;49.556;10.956;2023-02-12T08:18:35;100478.00;;;3.92;100.00
20156;BME280;10238;49.556;10.956;2023-02-12T08:21:27;100473.44;;;3.97;100.00
20156;BME280;10238;49.556;10.956;2023-02-12T08:24:18;100468.66;;;3.85;100.00
20156;BME280;10238;49.556;10.956;2023-02-12T08:27:09;100472.19;;;4.05;100.00
20156;BME280;10238;49.556;10.956;2023-02-12T08:30:02;100471.31;;;4.26;100.00
20156;BME280;10238;49.556;10.956;2023-02-12T08:32:55;100465.44;;;4.20;100.00
20156;BME280;10238;49.556;10.956;2023-02-12T08:35:44;100465.81;;;4.32;100.00
20156;BME280;10238;49.556;10.956;2023-02-12T08:38:36;100465.88;;;4.51;100.00
20156;BME280;10238;49.556;10.956;2023-02-12T08:41:28;100463.19;;;4.53;100.00
20156;BME280;10238;49.556;10.956;2023-02-12T08:44:19;100461.41;;;4.53;100.00
20156;BME280;10238;49.556;10.956;2023-02-12T08:47:10;100465.16;;;4.68;100.00
20156;BME280;10238;49.556;10.956;2023-02-12T08:49:59;100464.59;;;4.80;100.00
20156;BME280;10238;49.556;10.956;2023-02-12T08:52:50;100459.13;;;4.84;100.00
20156;BME280;10238;49.556;10.956;2023-02-12T08:55:46;100457.72;;;4.96;100.00
20156;BME280;10238;49.556;10.956;2023-02-12T08:58:36;100455.03;;;4.97;100.00
20156;BME280;10238;49.556;10.956;2023-02-12T09:01:28;100458.19;;;5.05;100.00
20156;BME280;10238;49.556;10.956;2023-02-12T09:04:22;100462.53;;;5.06;100.00
20156;BME280;10238;49.556;10.956;2023-02-12T09:07:13;100466.09;;;5.05;100.00
20156;BME280;10238;49.556;10.956;2023-02-12T09:10:04;100473.66;;;5.13;100.00
20156;BME280;10238;49.556;10.956;2023-02-12T09:12:53;100463.75;;;5.18;100.00
20156;BME280;10238;49.556;10.956;2023-02-12T09:15:46;100462.50;;;5.26;100.00
20156;BME280;10238;49.556;10.956;2023-02-12T09:18:35;100468.41;;;5.31;100.00
20156;BME280;10238;49.556;10.956;2023-02-12T09:21:26;100462.91;;;5.36;100.00
20156;BME280;10238;49.556;10.956;2023-02-12T09:24:15;100460.66;;;5.47;100.00
20156;BME280;10238;49.556;10.956;2023-02-12T09:27:05;100465.69;;;5.51;100.00
20156;BME280;10238;49.556;10.956;2023-02-12T09:29:54;100455.50;;;5.62;100.00
20156;BME280;10238;49.556;10.956;2023-02-12T09:32:45;100460.78;;;5.62;100.00
20156;BME280;10238;49.556;10.956;2023-02-12T09:35:37;100466.69;;;5.67;100.00
20156;BME280;10238;49.556;10.956;2023-02-12T09:38:26;100478.34;;;5.82;100.00
20156;BME280;10238;49.556;10.956;2023-02-12T09:41:45;100474.88;;;5.98;100.00
20156;BME280;10238;49.556;10.956;2023-02-12T09:44:40;100467.75;;;6.00;100.00
20156;BME280;10238;49.556;10.956;2023-02-12T09:47:38;100470.41;;;6.17;100.00
20156;BME280;10238;49.556;10.956;2023-02-12T09:50:32;100464.28;;;6.17;100.00
20156;BME280;10238;49.556;10.956;2023-02-12T09:53:27;100461.25;;;6.24;100.00
20156;BME280;10238;49.556;10.956;2023-02-12T09:56:19;100468.88;;;6.30;100.00
20156;BME280;10238;49.556;10.956;2023-02-12T09:59:12;100467.81;;;6.34;100.00
20156;BME280;10238;49.556;10.956;2023-02-12T10:02:09;100461.59;;;6.35;100.00
20156;BME280;10238;49.556;10.956;2023-02-12T10:05:13;100461.88;;;6.46;100.00
20156;BME280;10238;49.556;10.956;2023-02-12T10:08:19;100466.38;;;6.61;100.00
20156;BME280;10238;49.556;10.956;2023-02-12T10:11:29;100468.63;;;6.86;100.00
20156;BME280;10238;49.556;10.956;2023-02-12T10:14:53;100468.94;;;6.97;100.00
20156;BME280;10238;49.556;10.956;2023-02-12T10:17:50;100463.47;;;7.00;100.00
20156;BME280;10238;49.556;10.956;2023-02-12T10:20:57;100470.81;;;7.11;100.00
20156;BME280;10238;49.556;10.956;2023-02-12T10:24:07;100463.25;;;7.20;100.00
20156;BME280;10238;49.556;10.956;2023-02-12T10:27:08;100472.06;;;7.21;100.00
20156;BME280;10238;49.556;10.956;2023-02-12T10:29:58;100470.16;;;7.07;100.00
20156;BME280;10238;49.556;10.956;2023-02-12T10:32:50;100472.06;;;7.21;100.00
20156;BME280;10238;49.556;10.956;2023-02-12T10:35:47;100466.53;;;7.25;100.00
20156;BME280;10238;49.556;10.956;2023-02-12T10:38:41;100465.19;;;7.34;100.00
20156;BME280;10238;49.556;10.956;2023-02-12T10:41:37;100453.81;;;7.47;100.00
20156;BME280;10238;49.556;10.956;2023-02-12T10:44:32;100455.97;;;7.56;100.00
20156;BME280;10238;49.556;10.956;2023-02-12T10:47:21;100458.09;;;7.65;100.00
20156;BME280;10238;49.556;10.956;2023-02-12T10:50:25;100443.50;;;7.74;100.00
20156;BME280;10238;49.556;10.956;2023-02-12T10:53:17;100449.88;;;7.85;100.00
20156;BME280;10238;49.556;10.956;2023-02-12T10:56:21;100441.00;;;8.02;100.00
20156;BME280;10238;49.556;10.956;2023-02-12T10:59:20;100443.03;;;8.12;100.00
20156;BME280;10238;49.556;10.956;2023-02-12T11:02:30;100440.72;;;8.22;100.00
20156;BME280;10238;49.556;10.956;2023-02-12T11:05:23;100443.97;;;8.27;100.00
20156;BME280;10238;49.556;10.956;2023-02-12T11:08:34;100442.75;;;8.32;100.00
20156;BME280;10238;49.556;10.956;2023-02-12T11:11:29;100445.91;;;8.39;100.00
20156;BME280;10238;49.556;10.956;2023-02-12T11:14:25;100444.88;;;8.41;100.00
20156;BME280;10238;49.556;10.956;2023-02-12T11:17:25;100434.97;;;8.45;100.00
20156;BME280;10238;49.556;10.956;2023-02-12T11:20:31;100448.88;;;8.48;100.00
20156;BME280;10238;49.556;10.956;2023-02-12T11:23:25;100440.72;;;8.51;100.00
20156;BME280;10238;49.556;10.956;2023-02-12T11:26:26;100438.75;;;8.55;100.00
20156;BME280;10238;49.556;10.956;2023-02-12T11:29:19;100447.19;;;8.61;100.00
20156;BME280;10238;49.556;10.956;2023-02-12T11:32:16;100454.03;;;8.65;100.00
20156;BME280;10238;49.556;10.956;2023-02-12T11:35:09;100435.56;;;8.64;100.00
20156;BME280;10238;49.556;10.956;2023-02-12T11:37:59;100437.09;;;8.68;100.00
20156;BME280;10238;49.556;10.956;2023-02-12T11:40:48;100433.19;;;8.59;100.00
20156;BME280;10238;49.556;10.956;2023-02-12T11:43:36;100435.34;;;8.53;100.00
20156;BME280;10238;49.556;10.956;2023-02-12T11:46:28;100431.00;;;8.52;100.00
20156;BME280;10238;49.556;10.956;2023-02-12T11:49:22;100436.66;;;8.46;100.00
20156;BME280;10238;49.556;10.956;2023-02-12T11:52:23;100431.16;;;8.49;100.00
20156;BME280;10238;49.556;10.956;2023-02-12T11:55:23;100425.41;;;8.56;100.00
20156;BME280;10238;49.556;10.956;2023-02-12T11:58:19;100422.53;;;8.45;100.00
20156;BME280;10238;49.556;10.956;2023-02-12T12:01:17;100421.31;;;8.51;100.00
20156;BME280;10238;49.556;10.956;2023-02-12T12:04:11;100419.06;;;8.59;100.00
20156;BME280;10238;49.556;10.956;2023-02-12T12:07:06;100418.31;;;8.57;100.00
20156;BME280;10238;49.556;10.956;2023-02-12T12:10:04;100420.75;;;8.46;100.00
20156;BME280;10238;49.556;10.956;2023-02-12T12:12:58;100417.59;;;8.39;100.00
20156;BME280;10238;49.556;10.956;2023-02-12T12:15:52;100419.53;;;8.51;100.00
20156;BME280;10238;49.556;10.956;2023-02-12T12:19:09;100424.91;;;8.36;100.00
20156;BME280;10238;49.556;10.956;2023-02-12T12:22:34;100421.50;;;8.18;100.00
20156;BME280;10238;49.556;10.956;2023-02-12T12:25:25;100417.75;;;8.22;100.00
20156;BME280;10238;49.556;10.956;2023-02-12T12:28:27;100424.84;;;8.06;100.00
20156;BME280;10238;49.556;10.956;2023-02-12T12:31:21;100426.44;;;8.09;100.00
20156;BME280;10238;49.556;10.956;2023-02-12T12:34:16;100424.28;;;8.31;100.00
20156;BME280;10238;49.556;10.956;2023-02-12T12:37:17;100427.44;;;7.77;100.00
20156;BME280;10238;49.556;10.956;2023-02-12T12:40:19;100436.41;;;7.90;100.00
20156;BME280;10238;49.556;10.956;2023-02-12T12:43:23;100427.78;;;7.71;100.00
20156;BME280;10238;49.556;10.956;2023-02-12T12:46:21;100433.16;;;7.85;100.00
20156;BME280;10238;49.556;10.956;2023-02-12T12:49:25;100424.06;;;8.04;100.00
20156;BME280;10238;49.556;10.956;2023-02-12T12:52:34;100425.97;;;7.87;100.00
20156;BME280;10238;49.556;10.956;2023-02-12T12:55:51;100423.31;;;7.87;100.00
20156;BME280;10238;49.556;10.956;2023-02-12T12:59:01;100415.56;;;7.84;100.00
20156;BME280;10238;49.556;10.956;2023-02-12T13:02:24;100417.09;;;7.88;100.00
20156;BME280;10238;49.556;10.956;2023-02-12T13:05:37;100421.41;;;7.75;100.00
20156;BME280;10238;49.556;10.956;2023-02-12T13:08:42;100416.28;;;7.72;100.00
20156;BME280;10238;49.556;10.956;2023-02-12T13:11:40;100421.25;;;8.07;100.00
20156;BME280;10238;49.556;10.956;2023-02-12T13:14:41;100413.50;;;7.89;100.00
20156;BME280;10238;49.556;10.956;2023-02-12T13:18:14;100413.63;;;8.17;100.00
20156;BME280;10238;49.556;10.956;2023-02-12T13:21:08;100415.84;;;8.09;100.00
20156;BME280;10238;49.556;10.956;2023-02-12T13:24:06;100409.56;;;8.11;100.00
20156;BME280;10238;49.556;10.956;2023-02-12T13:27:01;100406.56;;;8.02;100.00
20156;BME280;10238;49.556;10.956;2023-02-12T13:30:17;100413.63;;;8.17;100.00
20156;BME280;10238;49.556;10.956;2023-02-12T13:33:10;100409.44;;;8.28;100.00
20156;BME280;10238;49.556;10.956;2023-02-12T13:36:03;100404.84;;;8.46;100.00
20156;BME280;10238;49.556;10.956;2023-02-12T13:38:57;100416.41;;;8.59;100.00
20156;BME280;10238;49.556;10.956;2023-02-12T13:41:56;100410.56;;;8.68;100.00
20156;BME280;10238;49.556;10.956;2023-02-12T13:44:56;100413.22;;;8.68;100.00
20156;BME280;10238;49.556;10.956;2023-02-12T13:47:55;100409.84;;;8.80;100.00
20156;BME280;10238;49.556;10.956;2023-02-12T13:50:51;100413.56;;;8.48;100.00
20156;BME280;10238;49.556;10.956;2023-02-12T13:53:56;100406.31;;;8.06;100.00
20156;BME280;10238;49.556;10.956;2023-02-12T13:56:48;100411.66;;;8.36;100.00
20156;BME280;10238;49.556;10.956;2023-02-12T13:59:45;100408.06;;;8.51;100.00
20156;BME280;10238;49.556;10.956;2023-02-12T14:02:45;100410.00;;;8.04;100.00
20156;BME280;10238;49.556;10.956;2023-02-12T14:05:35;100405.91;;;7.83;100.00
20156;BME280;10238;49.556;10.956;2023-02-12T14:08:34;100409.00;;;8.20;100.00
20156;BME280;10238;49.556;10.956;2023-02-12T14:11:24;100404.22;;;7.66;100.00
20156;BME280;10238;49.556;10.956;2023-02-12T14:14:12;100411.31;;;7.66;100.00
20156;BME280;10238;49.556;10.956;2023-02-12T14:17:38;100404.78;;;7.87;100.00
20156;BME280;10238;49.556;10.956;2023-02-12T14:20:30;100397.28;;;7.95;100.00
20156;BME280;10238;49.556;10.956;2023-02-12T14:23:24;100410.88;;;8.34;100.00
20156;BME280;10238;49.556;10.956;2023-02-12T14:26:16;100398.94;;;8.27;100.00
20156;BME280;10238;49.556;10.956;2023-02-12T14:29:17;100402.19;;;8.46;100.00
20156;BME280;10238;49.556;10.956;2023-02-12T14:36:13;100395.63;;;8.81;100.00
20156;BME280;10238;49.556;10.956;2023-02-12T14:39:26;100396.34;;;8.69;100.00
20156;BME280;10238;49.556;10.956;2023-02-12T14:42:51;100393.03;;;8.51;100.00
20156;BME280;10238;49.556;10.956;2023-02-12T14:45:43;100389.72;;;8.62;100.00
20156;BME280;10238;49.556;10.956;2023-02-12T14:48:49;100394.47;;;8.71;100.00
20156;BME280;10238;49.556;10.956;2023-02-12T14:51:43;100396.63;;;8.64;100.00
20156;BME280;10238;49.556;10.956;2023-02-12T14:54:36;100390.31;;;8.67;100.00
20156;BME280;10238;49.556;10.956;2023-02-12T14:57:29;100392.56;;;8.73;100.00
20156;BME280;10238;49.556;10.956;2023-02-12T15:00:26;100388.81;;;8.77;100.00
20156;BME280;10238;49.556;10.956;2023-02-12T15:03:28;100389.25;;;8.83;100.00
20156;BME280;10238;49.556;10.956;2023-02-12T15:06:21;100385.47;;;8.59;100.00
20156;BME280;10238;49.556;10.956;2023-02-12T15:09:18;100375.69;;;8.60;100.00